sensor_id;sensor_type;location;lat;lon;timestamp;pressure;altitude;pressure_sealevel;temperature;humidity
40918;BME280;26644;50.248;19.032;2023-04-27T00:02:41;98251.84;;;5.92;55.94
40918;BME280;26644;50.248;19.032;2023-04-27T00:05:46;98248.81;;;5.88;56.19
40918;BME280;26644;50.248;19.032;2023-04-27T00:08:50;98227.63;;;5.73;56.38
40918;BME280;26644;50.248;19.032;2023-04-27T00:11:58;98242.38;;;5.72;56.69
40918;BME280;26644;50.248;19.032;2023-04-27T00:15:03;98246.66;;;5.68;56.68
40918;BME280;26644;50.248;19.032;2023-04-27T00:18:09;98236.69;;;5.57;56.93
40918;BME280;26644;50.248;19.032;2023-04-27T00:21:14;98233.72;;;5.58;57.06
40918;BME280;26644;50.248;19.032;2023-04-27T00:24:19;98240.75;;;5.54;57.21
40918;BME280;26644;50.248;19.032;2023-04-27T00:27:26;98242.59;;;5.49;57.68
40918;BME280;26644;50.248;19.032;2023-04-27T00:30:32;98239.00;;;5.48;57.72
40918;BME280;26644;50.248;19.032;2023-04-27T00:33:36;98244.97;;;5.45;57.71
40918;BME280;26644;50.248;19.032;2023-04-27T00:36:41;98241.09;;;5.41;57.93
40918;BME280;26644;50.248;19.032;2023-04-27T00:39:47;98238.06;;;5.37;58.18
40918;BME280;26644;50.248;19.032;2023-04-27T00:42:55;98241.53;;;5.33;58.34
40918;BME280;26644;50.248;19.032;2023-04-27T00:46:00;98243.03;;;5.23;58.65
40918;BME280;26644;50.248;19.032;2023-04-27T00:49:07;98243.69;;;5.14;58.91
40918;BME280;26644;50.248;19.032;2023-04-27T00:52:11;98246.31;;;5.08;59.04
40918;BME280;26644;50.248;19.032;2023-04-27T00:55:18;98245.75;;;5.06;59.33
40918;BME280;26644;50.248;19.032;2023-04-27T00:58:25;98246.56;;;5.07;59.33
40918;BME280;26644;50.248;19.032;2023-04-27T01:01:30;98251.22;;;5.06;59.51
40918;BME280;26644;50.248;19.032;2023-04-27T01:04:35;98244.09;;;5.05;59.55
40918;BME280;26644;50.248;19.032;2023-04-27T01:07:40;98241.63;;;5.04;59.61
40918;BME280;26644;50.248;19.032;2023-04-27T01:10:45;98225.50;;;4.97;59.80
40918;BME280;26644;50.248;19.032;2023-04-27T01:13:54;98238.66;;;5.05;59.96
40918;BME280;26644;50.248;19.032;2023-04-27T01:16:59;98226.88;;;5.00;59.76
40918;BME280;26644;50.248;19.032;2023-04-27T01:20:05;98246.31;;;5.08;60.04
40918;BME280;26644;50.248;19.032;2023-04-27T01:23:15;98235.88;;;5.00;60.00
40918;BME280;26644;50.248;19.032;2023-04-27T01:26:20;98247.69;;;5.06;59.97
40918;BME280;26644;50.248;19.032;2023-04-27T01:29:25;98250.88;;;5.03;59.90
40918;BME280;26644;50.248;19.032;2023-04-27T01:32:30;98235.69;;;4.90;60.29
40918;BME280;26644;50.248;19.032;2023-04-27T01:35:34;98250.78;;;4.98;60.17
40918;BME280;26644;50.248;19.032;2023-04-27T01:38:43;98251.03;;;4.96;60.19
40918;BME280;26644;50.248;19.032;2023-04-27T01:41:47;98237.50;;;4.84;60.40
40918;BME280;26644;50.248;19.032;2023-04-27T01:44:53;98252.09;;;4.95;60.65
40918;BME280;26644;50.248;19.032;2023-04-27T01:47:57;98236.09;;;4.82;60.58
40918;BME280;26644;50.248;19.032;2023-04-27T01:51:02;98250.38;;;4.89;60.77
40918;BME280;26644;50.248;19.032;2023-04-27T01:54:09;98253.59;;;4.86;60.83
40918;BME280;26644;50.248;19.032;2023-04-27T01:57:15;98252.44;;;4.82;61.16
40918;BME280;26644;50.248;19.032;2023-04-27T02:00:20;98263.56;;;4.80;61.32
40918;BME280;26644;50.248;19.032;2023-04-27T02:03:27;98261.09;;;4.78;61.42
40918;BME280;26644;50.248;19.032;2023-04-27T02:06:31;98264.88;;;4.77;61.34
40918;BME280;26644;50.248;19.032;2023-04-27T02:09:39;98252.03;;;4.73;61.45
40918;BME280;26644;50.248;19.032;2023-04-27T02:12:46;98258.53;;;4.72;61.71
40918;BME280;26644;50.248;19.032;2023-04-27T02:15:52;98252.91;;;4.61;61.76
40918;BME280;26644;50.248;19.032;2023-04-27T02:18:56;98259.50;;;4.66;61.81
40918;BME280;26644;50.248;19.032;2023-04-27T02:22:02;98253.25;;;4.65;61.83
40918;BME280;26644;50.248;19.032;2023-04-27T02:25:10;98251.84;;;4.63;62.01
40918;BME280;26644;50.248;19.032;2023-04-27T02:28:17;98255.63;;;4.61;62.01
40918;BME280;26644;50.248;19.032;2023-04-27T02:31:22;98245.94;;;4.54;62.01
40918;BME280;26644;50.248;19.032;2023-04-27T02:34:27;98247.72;;;4.60;62.12
40918;BME280;26644;50.248;19.032;2023-04-27T02:37:33;98249.13;;;4.63;62.20
40918;BME280;26644;50.248;19.032;2023-04-27T02:40:41;98256.69;;;4.60;62.29
40918;BME280;26644;50.248;19.032;2023-04-27T02:43:45;98248.78;;;4.59;62.35
40918;BME280;26644;50.248;19.032;2023-04-27T02:46:51;98249.00;;;4.57;62.44
40918;BME280;26644;50.248;19.032;2023-04-27T02:49:56;98256.34;;;4.57;62.49
40918;BME280;26644;50.248;19.032;2023-04-27T02:53:01;98254.44;;;4.57;62.37
40918;BME280;26644;50.248;19.032;2023-04-27T02:56:08;98256.34;;;4.57;62.35
40918;BME280;26644;50.248;19.032;2023-04-27T02:59:14;98233.50;;;4.41;62.57
40918;BME280;26644;50.248;19.032;2023-04-27T03:02:18;98258.84;;;4.58;62.53
40918;BME280;26644;50.248;19.032;2023-04-27T03:05:24;98258.00;;;4.58;62.58
40918;BME280;26644;50.248;19.032;2023-04-27T03:08:31;98244.53;;;4.51;62.60
40918;BME280;26644;50.248;19.032;2023-04-27T03:11:39;98257.53;;;4.61;62.40
40918;BME280;26644;50.248;19.032;2023-04-27T03:14:44;98257.53;;;4.61;62.51
40918;BME280;26644;50.248;19.032;2023-04-27T03:17:49;98265.69;;;4.61;62.74
40918;BME280;26644;50.248;19.032;2023-04-27T03:20:53;98258.38;;;4.50;62.78
40918;BME280;26644;50.248;19.032;2023-04-27T03:24:08;98272.06;;;4.55;62.92
40918;BME280;26644;50.248;19.032;2023-04-27T03:27:15;98269.84;;;4.52;63.05
40918;BME280;26644;50.248;19.032;2023-04-27T03:30:21;98269.00;;;4.51;63.00
40918;BME280;26644;50.248;19.032;2023-04-27T03:33:25;98276.34;;;4.51;62.94
40918;BME280;26644;50.248;19.032;2023-04-27T03:36:31;98282.50;;;4.46;63.04
40918;BME280;26644;50.248;19.032;2023-04-27T03:39:35;98278.38;;;4.43;63.35
40918;BME280;26644;50.248;19.032;2023-04-27T03:42:43;98283.25;;;4.41;63.35
40918;BME280;26644;50.248;19.032;2023-04-27T03:45:48;98281.59;;;4.40;63.40
40918;BME280;26644;50.248;19.032;2023-04-27T03:48:54;98282.53;;;4.34;63.58
40918;BME280;26644;50.248;19.032;2023-04-27T03:51:58;98287.88;;;4.41;63.56
40918;BME280;26644;50.248;19.032;2023-04-27T03:55:05;98294.47;;;4.45;63.64
40918;BME280;26644;50.248;19.032;2023-04-27T03:58:13;98271.88;;;4.44;63.63
40918;BME280;26644;50.248;19.032;2023-04-27T04:01:37;98293.72;;;4.78;63.46
40918;BME280;26644;50.248;19.032;2023-04-27T04:04:41;98298.44;;;5.00;62.88
40918;BME280;26644;50.248;19.032;2023-04-27T04:07:47;98304.63;;;5.30;62.30
40918;BME280;26644;50.248;19.032;2023-04-27T04:10:52;98306.75;;;5.61;61.17
40918;BME280;26644;50.248;19.032;2023-04-27T04:14:01;98311.94;;;6.02;60.09
40918;BME280;26644;50.248;19.032;2023-04-27T04:17:08;98311.69;;;6.48;59.21
40918;BME280;26644;50.248;19.032;2023-04-27T04:20:16;98312.44;;;6.98;57.26
40918;BME280;26644;50.248;19.032;2023-04-27T04:23:20;98320.03;;;7.51;55.97
40918;BME280;26644;50.248;19.032;2023-04-27T04:26:25;98315.66;;;7.98;54.45
40918;BME280;26644;50.248;19.032;2023-04-27T04:29:33;98327.84;;;8.27;53.11
40918;BME280;26644;50.248;19.032;2023-04-27T04:32:39;98323.81;;;8.40;52.50
40918;BME280;26644;50.248;19.032;2023-04-27T04:35:45;98332.59;;;8.58;51.91
40918;BME280;26644;50.248;19.032;2023-04-27T04:38:51;98329.53;;;8.44;51.71
40918;BME280;26644;50.248;19.032;2023-04-27T04:41:58;98339.13;;;8.41;51.76
40918;BME280;26644;50.248;19.032;2023-04-27T04:45:10;98337.72;;;8.34;51.65
40918;BME280;26644;50.248;19.032;2023-04-27T04:48:15;98336.84;;;8.28;51.77
40918;BME280;26644;50.248;19.032;2023-04-27T04:51:21;98345.31;;;8.21;51.93
40918;BME280;26644;50.248;19.032;2023-04-27T04:54:25;98350.75;;;8.16;52.03
40918;BME280;26644;50.248;19.032;2023-04-27T04:57:30;98350.75;;;8.16;51.99
40918;BME280;26644;50.248;19.032;2023-04-27T05:00:37;98351.31;;;8.18;51.94
40918;BME280;26644;50.248;19.032;2023-04-27T05:03:43;98338.22;;;8.20;51.89
40918;BME280;26644;50.248;19.032;2023-04-27T05:06:48;98343.41;;;8.22;51.72
40918;BME280;26644;50.248;19.032;2023-04-27T05:09:54;98357.91;;;8.22;51.78
40918;BME280;26644;50.248;19.032;2023-04-27T05:12:58;98346.94;;;8.17;51.71
40918;BME280;26644;50.248;19.032;2023-04-27T05:16:07;98357.91;;;8.22;51.84
40918;BME280;26644;50.248;19.032;2023-04-27T05:19:12;98361.19;;;8.19;51.77
40918;BME280;26644;50.248;19.032;2023-04-27T05:22:19;98361.44;;;8.18;51.74
40918;BME280;26644;50.248;19.032;2023-04-27T05:25:23;98361.97;;;8.15;51.81
40918;BME280;26644;50.248;19.032;2023-04-27T05:28:28;98362.78;;;8.10;52.02
40918;BME280;26644;50.248;19.032;2023-04-27T05:31:35;98368.47;;;8.03;52.55
40918;BME280;26644;50.248;19.032;2023-04-27T05:34:41;98364.34;;;8.01;52.73
40918;BME280;26644;50.248;19.032;2023-04-27T05:37:46;98365.16;;;8.01;52.19
40918;BME280;26644;50.248;19.032;2023-04-27T05:40:53;98370.44;;;8.13;52.25
40918;BME280;26644;50.248;19.032;2023-04-27T05:43:58;98365.16;;;8.54;51.51
40918;BME280;26644;50.248;19.032;2023-04-27T05:47:06;98374.41;;;9.27;49.88
40918;BME280;26644;50.248;19.032;2023-04-27T05:50:10;98384.78;;;10.13;48.30
40918;BME280;26644;50.248;19.032;2023-04-27T05:53:16;98395.16;;;11.07;45.24
40918;BME280;26644;50.248;19.032;2023-04-27T05:56:20;98387.97;;;11.85;43.36
40918;BME280;26644;50.248;19.032;2023-04-27T05:59:27;98391.41;;;12.55;41.82
40918;BME280;26644;50.248;19.032;2023-04-27T06:02:34;98399.94;;;13.21;40.44
40918;BME280;26644;50.248;19.032;2023-04-27T06:05:39;98401.00;;;13.77;39.58
40918;BME280;26644;50.248;19.032;2023-04-27T06:08:43;98395.22;;;14.39;38.47
40918;BME280;26644;50.248;19.032;2023-04-27T06:11:49;98405.09;;;14.87;37.49
40918;BME280;26644;50.248;19.032;2023-04-27T06:14:53;98407.25;;;15.27;36.29
40918;BME280;26644;50.248;19.032;2023-04-27T06:18:01;98411.91;;;15.54;36.33
40918;BME280;26644;50.248;19.032;2023-04-27T06:21:06;98402.28;;;15.97;35.71
40918;BME280;26644;50.248;19.032;2023-04-27T06:24:11;98421.81;;;16.15;34.55
40918;BME280;26644;50.248;19.032;2023-04-27T06:27:16;98419.59;;;16.34;34.29
40918;BME280;26644;50.248;19.032;2023-04-27T06:30:21;98424.63;;;16.55;33.73
40918;BME280;26644;50.248;19.032;2023-04-27T06:33:29;98431.28;;;16.22;34.34
40918;BME280;26644;50.248;19.032;2023-04-27T06:36:35;98433.78;;;16.33;33.99
40918;BME280;26644;50.248;19.032;2023-04-27T06:39:39;98432.13;;;16.32;33.80
40918;BME280;26644;50.248;19.032;2023-04-27T06:42:44;98435.13;;;16.75;33.40
40918;BME280;26644;50.248;19.032;2023-04-27T06:45:49;98437.19;;;17.01;32.79
40918;BME280;26644;50.248;19.032;2023-04-27T06:48:56;98443.72;;;17.05;32.13
40918;BME280;26644;50.248;19.032;2023-04-27T06:52:02;98443.28;;;17.30;32.00
40918;BME280;26644;50.248;19.032;2023-04-27T06:55:08;98432.91;;;17.70;30.76
40918;BME280;26644;50.248;19.032;2023-04-27T06:58:12;98437.44;;;18.01;31.05
40918;BME280;26644;50.248;19.032;2023-04-27T07:01:17;98440.84;;;18.16;30.05
40918;BME280;26644;50.248;19.032;2023-04-27T07:04:25;98437.19;;;18.59;29.49
40918;BME280;26644;50.248;19.032;2023-04-27T07:07:31;98432.16;;;18.82;29.20
40918;BME280;26644;50.248;19.032;2023-04-27T07:10:35;98436.63;;;19.04;28.41
40918;BME280;26644;50.248;19.032;2023-04-27T07:13:40;98439.69;;;19.12;28.59
40918;BME280;26644;50.248;19.032;2023-04-27T07:16:45;98439.25;;;19.01;28.83
40918;BME280;26644;50.248;19.032;2023-04-27T07:19:53;98434.84;;;19.00;27.97
40918;BME280;26644;50.248;19.032;2023-04-27T07:22:57;98423.81;;;18.82;28.29
40918;BME280;26644;50.248;19.032;2023-04-27T07:26:03;98432.09;;;18.61;27.58
40918;BME280;26644;50.248;19.032;2023-04-27T07:29:07;98417.59;;;18.29;27.23
40918;BME280;26644;50.248;19.032;2023-04-27T07:32:14;98434.16;;;18.73;27.56
40918;BME280;26644;50.248;19.032;2023-04-27T07:35:21;98441.09;;;18.67;27.36
40918;BME280;26644;50.248;19.032;2023-04-27T07:38:26;98439.44;;;18.66;27.95
40918;BME280;26644;50.248;19.032;2023-04-27T07:41:31;98435.03;;;18.65;28.16
40918;BME280;26644;50.248;19.032;2023-04-27T07:44:37;98425.31;;;18.32;28.45
40918;BME280;26644;50.248;19.032;2023-04-27T07:47:42;98434.34;;;18.03;28.50
40918;BME280;26644;50.248;19.032;2023-04-27T07:50:50;98433.69;;;18.06;28.45
40918;BME280;26644;50.248;19.032;2023-04-27T07:53:55;98438.94;;;17.64;28.42
40918;BME280;26644;50.248;19.032;2023-04-27T07:57:01;98420.75;;;17.05;28.54
40918;BME280;26644;50.248;19.032;2023-04-27T08:00:12;98427.72;;;16.53;28.40
40918;BME280;26644;50.248;19.032;2023-04-27T08:03:18;98426.91;;;16.21;28.67
40918;BME280;26644;50.248;19.032;2023-04-27T08:06:25;98432.75;;;15.97;29.43
40918;BME280;26644;50.248;19.032;2023-04-27T08:09:31;98431.09;;;15.51;30.02
40918;BME280;26644;50.248;19.032;2023-04-27T08:12:36;98430.06;;;14.82;31.01
40918;BME280;26644;50.248;19.032;2023-04-27T08:15:41;98431.72;;;14.22;31.45
40918;BME280;26644;50.248;19.032;2023-04-27T08:18:46;98431.66;;;13.94;32.06
40918;BME280;26644;50.248;19.032;2023-04-27T08:21:54;98430.25;;;14.58;31.88
40918;BME280;26644;50.248;19.032;2023-04-27T08:24:58;98423.06;;;15.63;30.69
40918;BME280;26644;50.248;19.032;2023-04-27T08:28:05;98434.66;;;16.73;27.86
40918;BME280;26644;50.248;19.032;2023-04-27T08:31:09;98438.38;;;17.35;28.12
40918;BME280;26644;50.248;19.032;2023-04-27T08:34:15;98432.09;;;17.70;26.67
40918;BME280;26644;50.248;19.032;2023-04-27T08:37:21;98434.66;;;17.40;27.26
40918;BME280;26644;50.248;19.032;2023-04-27T08:40:27;98434.66;;;16.73;27.24
40918;BME280;26644;50.248;19.032;2023-04-27T08:43:32;98442.13;;;16.10;27.38
40918;BME280;26644;50.248;19.032;2023-04-27T08:46:39;98435.22;;;15.39;27.14
40918;BME280;26644;50.248;19.032;2023-04-27T08:49:43;98431.91;;;14.73;28.27
40918;BME280;26644;50.248;19.032;2023-04-27T08:52:51;98427.28;;;14.07;29.44
40918;BME280;26644;50.248;19.032;2023-04-27T08:55:56;98428.91;;;13.75;29.81
40918;BME280;26644;50.248;19.032;2023-04-27T08:59:03;98427.34;;;14.02;30.31
40918;BME280;26644;50.248;19.032;2023-04-27T09:02:18;98433.53;;;14.74;29.33
40918;BME280;26644;50.248;19.032;2023-04-27T09:05:24;98438.97;;;15.57;28.65
40918;BME280;26644;50.248;19.032;2023-04-27T09:08:40;98431.19;;;15.82;27.30
40918;BME280;26644;50.248;19.032;2023-04-27T09:11:46;98436.97;;;16.80;26.13
40918;BME280;26644;50.248;19.032;2023-04-27T09:14:59;98427.44;;;16.64;26.55
40918;BME280;26644;50.248;19.032;2023-04-27T09:18:13;98421.66;;;16.20;27.58
40918;BME280;26644;50.248;19.032;2023-04-27T09:21:22;98413.13;;;15.48;28.53
40918;BME280;26644;50.248;19.032;2023-04-27T09:24:32;98434.47;;;14.97;29.34
40918;BME280;26644;50.248;19.032;2023-04-27T09:27:37;98435.31;;;14.37;30.31
40918;BME280;26644;50.248;19.032;2023-04-27T09:30:51;98430.25;;;13.78;30.61
40918;BME280;26644;50.248;19.032;2023-04-27T09:33:57;98435.34;;;13.33;31.48
40918;BME280;26644;50.248;19.032;2023-04-27T09:37:03;98429.66;;;13.05;31.71
40918;BME280;26644;50.248;19.032;2023-04-27T09:40:12;98421.56;;;13.33;31.79
40918;BME280;26644;50.248;19.032;2023-04-27T09:43:18;98426.94;;;13.95;31.42
40918;BME280;26644;50.248;19.032;2023-04-27T09:46:23;98422.47;;;14.74;30.74
40918;BME280;26644;50.248;19.032;2023-04-27T09:49:33;98433.19;;;15.68;29.79
40918;BME280;26644;50.248;19.032;2023-04-27T09:52:38;98441.03;;;16.51;28.82
40918;BME280;26644;50.248;19.032;2023-04-27T09:55:59;98440.91;;;16.88;27.93
40918;BME280;26644;50.248;19.032;2023-04-27T09:59:55;98439.22;;;16.78;26.95
40918;BME280;26644;50.248;19.032;2023-04-27T10:03:21;98441.66;;;16.71;27.54
40918;BME280;26644;50.248;19.032;2023-04-27T10:07:00;98441.09;;;16.28;28.49
40918;BME280;26644;50.248;19.032;2023-04-27T10:10:15;98437.03;;;15.81;28.88
40918;BME280;26644;50.248;19.032;2023-04-27T10:13:25;98440.31;;;15.46;28.42
40918;BME280;26644;50.248;19.032;2023-04-27T10:16:38;98440.22;;;14.73;28.98
40918;BME280;26644;50.248;19.032;2023-04-27T10:19:55;98432.59;;;14.04;29.48
40918;BME280;26644;50.248;19.032;2023-04-27T10:23:02;98419.78;;;13.42;29.98
40918;BME280;26644;50.248;19.032;2023-04-27T10:26:07;98434.38;;;13.23;31.17
40918;BME280;26644;50.248;19.032;2023-04-27T10:29:15;98428.66;;;13.15;31.46
40918;BME280;26644;50.248;19.032;2023-04-27T10:32:24;98412.72;;;12.92;31.70
40918;BME280;26644;50.248;19.032;2023-04-27T10:35:34;98422.41;;;12.90;32.40
40918;BME280;26644;50.248;19.032;2023-04-27T10:38:40;98428.09;;;12.74;31.27
40918;BME280;26644;50.248;19.032;2023-04-27T10:41:49;98408.16;;;12.58;30.84
40918;BME280;26644;50.248;19.032;2023-04-27T10:44:58;98428.09;;;12.50;31.70
40918;BME280;26644;50.248;19.032;2023-04-27T10:48:05;98434.47;;;12.45;32.22
40918;BME280;26644;50.248;19.032;2023-04-27T10:51:14;98425.47;;;12.10;33.27
40918;BME280;26644;50.248;19.032;2023-04-27T10:54:25;98426.28;;;11.76;33.82
40918;BME280;26644;50.248;19.032;2023-04-27T10:57:31;98437.22;;;11.47;34.78
40918;BME280;26644;50.248;19.032;2023-04-27T11:00:41;98433.78;;;11.26;35.52
40918;BME280;26644;50.248;19.032;2023-04-27T11:03:53;98428.09;;;11.12;36.07
40918;BME280;26644;50.248;19.032;2023-04-27T11:06:59;98432.44;;;11.18;36.04
40918;BME280;26644;50.248;19.032;2023-04-27T11:10:06;98438.66;;;11.34;35.54
40918;BME280;26644;50.248;19.032;2023-04-27T11:13:14;98442.13;;;11.50;35.32
40918;BME280;26644;50.248;19.032;2023-04-27T11:16:22;98435.63;;;11.75;34.38
40918;BME280;26644;50.248;19.032;2023-04-27T11:19:28;98448.34;;;12.06;33.42
40918;BME280;26644;50.248;19.032;2023-04-27T11:22:33;98440.00;;;12.16;33.07
40918;BME280;26644;50.248;19.032;2023-04-27T11:25:47;98446.31;;;12.17;32.07
40918;BME280;26644;50.248;19.032;2023-04-27T11:28:57;98424.50;;;12.25;31.93
40918;BME280;26644;50.248;19.032;2023-04-27T11:32:17;98440.31;;;12.63;31.96
40918;BME280;26644;50.248;19.032;2023-04-27T11:35:31;98420.19;;;12.68;31.07
40918;BME280;26644;50.248;19.032;2023-04-27T11:38:37;98432.09;;;13.06;30.99
40918;BME280;26644;50.248;19.032;2023-04-27T11:41:45;98437.59;;;13.31;31.01
40918;BME280;26644;50.248;19.032;2023-04-27T11:44:54;98427.19;;;13.22;31.39
40918;BME280;26644;50.248;19.032;2023-04-27T11:48:03;98438.44;;;13.07;32.01
40918;BME280;26644;50.248;19.032;2023-04-27T11:51:10;98443.03;;;12.92;32.45
40918;BME280;26644;50.248;19.032;2023-04-27T11:54:15;98442.09;;;12.78;33.33
40918;BME280;26644;50.248;19.032;2023-04-27T11:57:23;98435.50;;;12.25;34.17
40918;BME280;26644;50.248;19.032;2023-04-27T12:00:29;98438.56;;;12.24;34.64
40918;BME280;26644;50.248;19.032;2023-04-27T12:03:37;98446.53;;;12.50;34.23
40918;BME280;26644;50.248;19.032;2023-04-27T12:06:42;98446.44;;;12.60;34.12
40918;BME280;26644;50.248;19.032;2023-04-27T12:09:48;98444.16;;;12.67;34.42
40918;BME280;26644;50.248;19.032;2023-04-27T12:12:52;98450.53;;;12.87;34.58
40918;BME280;26644;50.248;19.032;2023-04-27T12:15:57;98449.91;;;12.95;34.16
40918;BME280;26644;50.248;19.032;2023-04-27T12:19:05;98434.78;;;12.92;33.53
40918;BME280;26644;50.248;19.032;2023-04-27T12:22:10;98436.19;;;12.90;33.41
40918;BME280;26644;50.248;19.032;2023-04-27T12:25:15;98440.13;;;13.03;33.42
40918;BME280;26644;50.248;19.032;2023-04-27T12:28:20;98444.47;;;13.09;32.85
40918;BME280;26644;50.248;19.032;2023-04-27T12:31:25;98433.63;;;13.18;32.67
40918;BME280;26644;50.248;19.032;2023-04-27T12:34:33;98434.00;;;13.30;31.95
40918;BME280;26644;50.248;19.032;2023-04-27T12:37:39;98427.88;;;13.14;31.08
40918;BME280;26644;50.248;19.032;2023-04-27T12:40:44;98425.25;;;13.04;32.14
40918;BME280;26644;50.248;19.032;2023-04-27T12:43:49;98438.16;;;13.08;32.33
40918;BME280;26644;50.248;19.032;2023-04-27T12:46:54;98428.00;;;13.04;32.12
40918;BME280;26644;50.248;19.032;2023-04-27T12:50:01;98421.38;;;13.05;32.74
40918;BME280;26644;50.248;19.032;2023-04-27T12:53:07;98428.72;;;12.90;32.80
40918;BME280;26644;50.248;19.032;2023-04-27T12:56:11;98441.75;;;12.85;33.53
40918;BME280;26644;50.248;19.032;2023-04-27T12:59:17;98445.38;;;12.80;33.98
40918;BME280;26644;50.248;19.032;2023-04-27T13:02:21;98415.22;;;12.70;33.96
40918;BME280;26644;50.248;19.032;2023-04-27T13:05:29;98438.06;;;12.70;33.46
40918;BME280;26644;50.248;19.032;2023-04-27T13:08:35;98414.78;;;12.57;33.90
40918;BME280;26644;50.248;19.032;2023-04-27T13:11:41;98443.28;;;12.48;34.25
40918;BME280;26644;50.248;19.032;2023-04-27T13:14:46;98429.25;;;12.44;34.45
40918;BME280;26644;50.248;19.032;2023-04-27T13:17:52;98419.53;;;12.52;34.48
40918;BME280;26644;50.248;19.032;2023-04-27T13:21:01;98428.44;;;12.68;33.90
40918;BME280;26644;50.248;19.032;2023-04-27T13:24:07;98422.53;;;12.55;33.28
40918;BME280;26644;50.248;19.032;2023-04-27T13:27:12;98431.97;;;12.49;33.66
40918;BME280;26644;50.248;19.032;2023-04-27T13:30:18;98435.25;;;12.51;33.22
40918;BME280;26644;50.248;19.032;2023-04-27T13:33:22;98436.13;;;12.47;33.36
40918;BME280;26644;50.248;19.032;2023-04-27T13:36:30;98428.16;;;12.45;33.02
40918;BME280;26644;50.248;19.032;2023-04-27T13:39:35;98425.56;;;12.54;33.09
40918;BME280;26644;50.248;19.032;2023-04-27T13:42:40;98440.50;;;12.48;33.21
40918;BME280;26644;50.248;19.032;2023-04-27T13:45:46;98435.88;;;12.43;33.25
40918;BME280;26644;50.248;19.032;2023-04-27T13:48:53;98437.81;;;12.42;33.08
40918;BME280;26644;50.248;19.032;2023-04-27T13:52:00;98434.81;;;12.39;32.70
40918;BME280;26644;50.248;19.032;2023-04-27T13:55:08;98434.50;;;12.40;33.02
40918;BME280;26644;50.248;19.032;2023-04-27T13:58:14;98440.63;;;12.37;33.01
40918;BME280;26644;50.248;19.032;2023-04-27T14:01:19;98436.94;;;12.47;33.43
40918;BME280;26644;50.248;19.032;2023-04-27T14:04:23;98449.47;;;12.58;32.82
40918;BME280;26644;50.248;19.032;2023-04-27T14:07:31;98446.13;;;12.61;32.17
40918;BME280;26644;50.248;19.032;2023-04-27T14:10:37;98438.16;;;12.60;31.92
40918;BME280;26644;50.248;19.032;2023-04-27T14:13:42;98445.03;;;12.63;32.33
40918;BME280;26644;50.248;19.032;2023-04-27T14:16:47;98446.19;;;12.56;32.64
40918;BME280;26644;50.248;19.032;2023-04-27T14:19:52;98441.28;;;12.53;32.72
40918;BME280;26644;50.248;19.032;2023-04-27T14:23:00;98433.66;;;12.45;33.18
40918;BME280;26644;50.248;19.032;2023-04-27T14:26:07;98444.91;;;12.19;33.84
40918;BME280;26644;50.248;19.032;2023-04-27T14:29:12;98455.81;;;12.00;33.59
40918;BME280;26644;50.248;19.032;2023-04-27T14:32:18;98449.06;;;11.82;33.87
40918;BME280;26644;50.248;19.032;2023-04-27T14:35:23;98435.75;;;11.60;34.50
40918;BME280;26644;50.248;19.032;2023-04-27T14:38:31;98451.94;;;11.67;34.11
40918;BME280;26644;50.248;19.032;2023-04-27T14:41:36;98460.16;;;11.72;34.29
40918;BME280;26644;50.248;19.032;2023-04-27T14:44:41;98452.78;;;11.62;34.65
40918;BME280;26644;50.248;19.032;2023-04-27T14:47:45;98442.63;;;11.63;34.62
40918;BME280;26644;50.248;19.032;2023-04-27T14:50:51;98453.63;;;11.63;34.68
40918;BME280;26644;50.248;19.032;2023-04-27T14:53:58;98454.03;;;11.80;34.88
40918;BME280;26644;50.248;19.032;2023-04-27T14:57:04;98452.31;;;11.89;34.73
40918;BME280;26644;50.248;19.032;2023-04-27T15:00:10;98450.66;;;11.88;34.86
40918;BME280;26644;50.248;19.032;2023-04-27T15:03:19;98456.69;;;11.95;34.66
40918;BME280;26644;50.248;19.032;2023-04-27T15:06:24;98448.53;;;11.80;34.73
40918;BME280;26644;50.248;19.032;2023-04-27T15:09:33;98457.78;;;11.94;34.06
40918;BME280;26644;50.248;19.032;2023-04-27T15:12:38;98458.31;;;11.97;34.30
40918;BME280;26644;50.248;19.032;2023-04-27T15:15:44;98467.66;;;12.01;34.51
40918;BME280;26644;50.248;19.032;2023-04-27T15:18:50;98460.78;;;11.98;34.83
40918;BME280;26644;50.248;19.032;2023-04-27T15:21:56;98472.59;;;12.04;34.81
40918;BME280;26644;50.248;19.032;2023-04-27T15:25:03;98452.53;;;11.98;34.95
40918;BME280;26644;50.248;19.032;2023-04-27T15:28:09;98470.94;;;12.03;35.04
40918;BME280;26644;50.248;19.032;2023-04-27T15:31:13;98458.41;;;11.86;35.58
40918;BME280;26644;50.248;19.032;2023-04-27T15:34:19;98470.97;;;11.92;35.87
40918;BME280;26644;50.248;19.032;2023-04-27T15:37:24;98465.84;;;11.81;36.25
40918;BME280;26644;50.248;19.032;2023-04-27T15:40:34;98468.09;;;11.78;36.54
40918;BME280;26644;50.248;19.032;2023-04-27T15:43:39;98459.00;;;11.78;36.15
40918;BME280;26644;50.248;19.032;2023-04-27T15:46:44;98459.56;;;11.75;36.15
40918;BME280;26644;50.248;19.032;2023-04-27T15:49:49;98469.50;;;11.71;36.01
40918;BME280;26644;50.248;19.032;2023-04-27T15:52:54;98471.47;;;11.65;36.00
40918;BME280;26644;50.248;19.032;2023-04-27T15:56:01;98459.09;;;11.68;35.95
40918;BME280;26644;50.248;19.032;2023-04-27T15:59:07;98460.47;;;11.65;36.20
40918;BME280;26644;50.248;19.032;2023-04-27T16:02:12;98466.50;;;11.67;36.21
40918;BME280;26644;50.248;19.032;2023-04-27T16:05:17;98470.88;;;11.73;35.93
40918;BME280;26644;50.248;19.032;2023-04-27T16:08:22;98475.25;;;11.74;36.08
40918;BME280;26644;50.248;19.032;2023-04-27T16:11:31;98465.66;;;11.72;36.18
40918;BME280;26644;50.248;19.032;2023-04-27T16:14:36;98467.91;;;11.59;35.99
40918;BME280;26644;50.248;19.032;2023-04-27T16:17:41;98477.81;;;11.60;36.22
40918;BME280;26644;50.248;19.032;2023-04-27T16:20:46;98478.13;;;11.59;36.13